createdAt,value
2022-11-12T00:01:44.612Z,8.57
2022-11-12T00:04:11.561Z,8.93
2022-11-12T00:06:39.870Z,7.97
2022-11-12T00:09:06.675Z,8.40
2022-11-12T00:11:33.512Z,9.03
2022-11-12T00:14:00.323Z,8.67
2022-11-12T00:16:27.218Z,8.57
2022-11-12T00:18:54.003Z,8.63
2022-11-12T00:21:20.866Z,7.80
2022-11-12T00:23:49.033Z,7.50
2022-11-12T00:26:15.889Z,7.23
2022-11-12T00:28:42.660Z,8.20
2022-11-12T00:31:10.915Z,7.47
2022-11-12T00:33:40.936Z,7.77
2022-11-12T00:36:08.814Z,6.30
2022-11-12T00:38:35.650Z,7.07
2022-11-12T00:41:03.944Z,6.80
2022-11-12T00:43:30.792Z,6.30
2022-11-12T00:45:57.603Z,6.23
2022-11-12T00:48:24.805Z,5.77
2022-11-12T00:50:51.789Z,6.23
2022-11-12T00:53:18.595Z,6.30
2022-11-12T00:55:45.377Z,6.37
2022-11-12T00:58:13.523Z,7.67
2022-11-12T01:00:40.681Z,6.33
2022-11-12T01:03:07.466Z,5.57
2022-11-12T01:05:34.741Z,5.93
2022-11-12T01:08:01.618Z,5.63
2022-11-12T01:10:28.420Z,6.10
2022-11-12T01:12:55.501Z,6.33
2022-11-12T01:15:23.646Z,6.53
2022-11-12T01:17:50.382Z,5.73
2022-11-12T01:20:17.411Z,6.67
2022-11-12T01:22:44.260Z,7.17
2022-11-12T01:25:11.075Z,6.73
2022-11-12T01:27:37.976Z,7.00
2022-11-12T01:30:05.759Z,6.03
2022-11-12T01:32:36.978Z,7.00
2022-11-12T01:35:04.124Z,8.73
2022-11-12T01:37:30.969Z,8.33
2022-11-12T01:39:57.781Z,8.27
2022-11-12T01:42:28.219Z,8.17
2022-11-12T01:44:55.268Z,7.57
2022-11-12T01:47:25.219Z,7.17
2022-11-12T01:49:58.515Z,7.27
2022-11-12T01:52:30.193Z,6.60
2022-11-12T01:55:07.021Z,7.00
2022-11-12T01:57:40.720Z,7.10
2022-11-12T02:00:10.995Z,8.37
2022-11-12T02:02:38.167Z,7.27
2022-11-12T02:05:09.932Z,10.87
2022-11-12T02:07:39.533Z,7.13
2022-11-12T02:10:08.725Z,7.30
2022-11-12T02:12:55.029Z,11.63
2022-11-12T02:15:22.094Z,9.10
2022-11-12T02:17:48.965Z,7.53
2022-11-12T02:20:17.582Z,9.23
2022-11-12T02:22:45.740Z,7.50
2022-11-12T02:25:16.890Z,6.87
2022-11-12T02:27:44.437Z,6.47
2022-11-12T02:30:12.148Z,5.93
2022-11-12T02:32:38.918Z,6.97
2022-11-12T02:35:06.666Z,8.27
2022-11-12T02:37:33.487Z,6.23
2022-11-12T02:40:01.642Z,5.10
2022-11-12T02:42:28.415Z,6.07
2022-11-12T02:44:55.311Z,5.17
2022-11-12T02:47:22.126Z,6.57
2022-11-12T02:49:48.940Z,6.23
2022-11-12T02:52:15.718Z,9.00
2022-11-12T02:54:42.536Z,7.13
2022-11-12T02:57:10.844Z,6.17
2022-11-12T02:59:37.676Z,6.33
2022-11-12T03:02:04.443Z,7.00
2022-11-12T03:04:31.238Z,5.83
2022-11-12T03:06:58.094Z,6.37
2022-11-12T03:09:24.971Z,6.87
2022-11-12T03:11:51.782Z,7.40
2022-11-12T03:14:20.108Z,6.60
2022-11-12T03:16:47.088Z,7.60
2022-11-12T03:19:13.851Z,6.87
2022-11-12T03:21:40.731Z,5.80
2022-11-12T03:24:07.731Z,6.17
2022-11-12T03:26:36.016Z,5.70
2022-11-12T03:29:03.109Z,5.93
2022-11-12T03:31:31.286Z,5.97
2022-11-12T03:33:58.077Z,6.10
2022-11-12T03:36:24.911Z,5.53
2022-11-12T03:38:51.760Z,5.03
2022-11-12T03:41:18.579Z,5.60
2022-11-12T03:43:45.398Z,6.20
2022-11-12T03:46:12.214Z,5.63
2022-11-12T03:48:40.357Z,6.57
2022-11-12T03:51:07.197Z,6.10
2022-11-12T03:53:33.974Z,6.27
2022-11-12T03:56:00.792Z,5.13
2022-11-12T03:58:27.926Z,6.67
2022-11-12T04:00:55.013Z,6.53
2022-11-12T04:03:21.906Z,5.80
2022-11-12T04:06:08.869Z,6.23
2022-11-12T04:08:38.581Z,6.00
2022-11-12T04:11:07.884Z,6.63
2022-11-12T04:13:34.976Z,6.80
2022-11-12T04:16:22.760Z,6.73
2022-11-12T04:19:09.854Z,6.03
2022-11-12T04:21:51.408Z,6.47
2022-11-12T04:24:39.018Z,6.30
2022-11-12T04:27:06.648Z,7.50
2022-11-12T04:29:52.147Z,6.33
2022-11-12T04:32:19.233Z,7.03
2022-11-12T04:34:46.186Z,7.70
2022-11-12T04:37:14.434Z,8.43
2022-11-12T04:39:41.259Z,8.93
2022-11-12T04:42:27.460Z,8.63
2022-11-12T04:44:56.964Z,9.87
2022-11-12T04:47:23.773Z,9.07
2022-11-12T04:49:50.527Z,8.97
2022-11-12T04:52:18.895Z,9.37
2022-11-12T04:54:46.092Z,8.77
2022-11-12T04:57:12.867Z,9.20
2022-11-12T04:59:39.721Z,7.73
2022-11-12T05:02:06.559Z,8.80
2022-11-12T05:04:33.409Z,8.70
2022-11-12T05:07:00.680Z,7.13
2022-11-12T05:09:29.829Z,7.77
2022-11-12T05:11:57.346Z,7.20
2022-11-12T05:14:24.857Z,7.60
2022-11-12T05:16:52.284Z,7.20
2022-11-12T05:19:19.566Z,6.93
2022-11-12T05:22:04.760Z,7.40
2022-11-12T05:24:41.930Z,7.00
2022-11-12T05:27:11.539Z,7.23
2022-11-12T05:29:38.417Z,7.40
2022-11-12T05:32:06.492Z,7.40
2022-11-12T05:34:33.500Z,6.93
2022-11-12T05:37:01.531Z,6.77
2022-11-12T05:39:28.327Z,7.37
2022-11-12T05:42:12.373Z,7.23
2022-11-12T05:44:39.584Z,7.57
2022-11-12T05:47:06.395Z,6.93
2022-11-12T05:49:33.181Z,6.37
2022-11-12T05:51:59.990Z,7.20
2022-11-12T05:54:26.848Z,6.23
2022-11-12T05:56:53.809Z,6.80
2022-11-12T05:59:22.320Z,7.10
2022-11-12T06:01:49.221Z,7.47
2022-11-12T06:04:16.940Z,8.17
2022-11-12T06:06:44.711Z,6.80
2022-11-12T06:09:11.631Z,6.37
2022-11-12T06:11:38.799Z,6.67
2022-11-12T06:14:06.017Z,6.60
2022-11-12T06:16:34.228Z,6.57
2022-11-12T06:19:01.021Z,5.97
2022-11-12T06:21:28.778Z,6.83
2022-11-12T06:23:58.006Z,6.33
2022-11-12T06:26:26.830Z,8.53
2022-11-12T06:28:53.823Z,5.47
2022-11-12T06:31:20.862Z,5.53
2022-11-12T06:33:49.367Z,5.60
2022-11-12T06:36:18.014Z,5.10
2022-11-12T06:38:45.371Z,5.13
2022-11-12T06:41:13.227Z,5.60
2022-11-12T06:43:41.195Z,6.07
2022-11-12T06:46:12.799Z,6.20
2022-11-12T06:48:39.955Z,5.60
2022-11-12T06:51:10.607Z,5.63
2022-11-12T06:53:37.407Z,5.83
2022-11-12T06:56:06.449Z,5.13
2022-11-12T06:58:33.613Z,6.17
2022-11-12T07:01:10.961Z,6.13
2022-11-12T07:03:38.733Z,6.70
2022-11-12T07:06:09.504Z,6.73
2022-11-12T07:08:36.414Z,6.13
2022-11-12T07:11:03.831Z,6.57
2022-11-12T07:13:31.743Z,7.20
2022-11-12T07:15:59.593Z,7.10
2022-11-12T07:18:27.348Z,7.37
2022-11-12T07:20:58.612Z,6.90
2022-11-12T07:23:27.682Z,7.23
2022-11-12T07:25:59.318Z,7.67
2022-11-12T07:28:26.908Z,9.70
2022-11-12T07:30:58.121Z,9.10
2022-11-12T07:33:25.289Z,8.43
2022-11-12T07:35:57.846Z,8.33
2022-11-12T07:38:26.461Z,7.07
2022-11-12T07:40:59.373Z,7.10
2022-11-12T07:43:26.309Z,7.27
2022-11-12T07:45:53.169Z,7.50
2022-11-12T07:48:19.962Z,7.37
2022-11-12T07:50:46.732Z,8.10
2022-11-12T07:53:13.505Z,7.07
2022-11-12T07:55:41.716Z,7.17
2022-11-12T07:58:08.619Z,7.80
2022-11-12T08:00:35.406Z,8.07
2022-11-12T08:03:02.240Z,8.20
2022-11-12T08:05:29.086Z,8.70
2022-11-12T08:07:57.065Z,8.67
2022-11-12T08:10:23.941Z,7.97
2022-11-12T08:12:55.589Z,8.87
2022-11-12T08:15:22.789Z,9.97
2022-11-12T08:17:49.674Z,26.93
2022-11-12T08:20:16.579Z,14.67
2022-11-12T08:22:48.021Z,15.10
2022-11-12T08:25:17.022Z,10.83
2022-11-12T08:27:44.011Z,9.13
2022-11-12T08:30:13.632Z,8.23
2022-11-12T08:32:43.504Z,8.47
2022-11-12T08:35:10.825Z,9.67
2022-11-12T08:37:37.671Z,7.73
2022-11-12T08:40:05.629Z,10.30
2022-11-12T08:42:32.436Z,10.13
2022-11-12T08:44:59.287Z,8.93
2022-11-12T08:47:27.658Z,8.33
2022-11-12T08:49:54.424Z,7.93
2022-11-12T08:52:21.208Z,7.90
2022-11-12T08:54:47.986Z,8.73
2022-11-12T08:57:14.841Z,7.87
2022-11-12T08:59:42.468Z,8.07
2022-11-12T09:02:13.235Z,7.67
2022-11-12T09:04:41.394Z,8.33
2022-11-12T09:07:09.616Z,8.70
2022-11-12T09:09:36.862Z,9.10
2022-11-12T09:12:09.709Z,9.00
2022-11-12T09:14:40.555Z,9.43
2022-11-12T09:17:07.652Z,9.90
2022-11-12T09:19:37.509Z,10.13
2022-11-12T09:22:08.767Z,9.77
2022-11-12T09:24:36.414Z,10.30
2022-11-12T09:27:06.349Z,11.93
2022-11-12T09:29:33.528Z,11.33
2022-11-12T09:32:00.570Z,10.60
2022-11-12T09:34:27.522Z,10.80
2022-11-12T09:36:55.581Z,11.27
2022-11-12T09:39:23.783Z,11.13
2022-11-12T09:41:50.581Z,9.80
2022-11-12T09:44:19.865Z,12.20
2022-11-12T09:46:51.883Z,13.70
2022-11-12T09:49:23.133Z,12.40
2022-11-12T09:51:53.759Z,13.03
2022-11-12T09:54:25.611Z,13.20
2022-11-12T09:56:54.029Z,13.60
2022-11-12T09:59:22.426Z,11.93
2022-11-12T10:02:00.164Z,12.43
2022-11-12T10:04:41.960Z,12.43
2022-11-12T10:07:16.863Z,12.40
2022-11-12T10:09:57.098Z,12.20
2022-11-12T10:12:32.582Z,12.20
2022-11-12T10:15:42.518Z,10.90
2022-11-12T10:18:15.803Z,10.83
2022-11-12T10:20:48.558Z,10.40
2022-11-12T10:23:19.383Z,10.50
2022-11-12T10:25:49.467Z,10.63
2022-11-12T10:28:25.771Z,10.97
2022-11-12T10:30:57.237Z,11.00
2022-11-12T10:33:24.118Z,11.10
2022-11-12T10:35:52.738Z,10.63
2022-11-12T10:38:27.708Z,11.13
2022-11-12T10:40:56.377Z,9.10
2022-11-12T10:43:24.910Z,9.67
2022-11-12T10:45:52.095Z,8.50
2022-11-12T10:48:27.229Z,10.53
2022-11-12T10:50:54.950Z,10.50
2022-11-12T10:53:35.970Z,12.43
2022-11-12T10:56:06.355Z,11.77
2022-11-12T10:58:34.433Z,12.70
2022-11-12T11:01:03.349Z,10.80
2022-11-12T11:03:34.090Z,11.03
2022-11-12T11:06:04.036Z,11.53
2022-11-12T11:08:37.706Z,11.50
2022-11-12T11:11:19.903Z,11.13
2022-11-12T11:13:52.767Z,12.17
2022-11-12T11:16:24.871Z,11.60
2022-11-12T11:18:54.943Z,13.83
2022-11-12T11:21:39.218Z,13.83
2022-11-12T11:24:25.519Z,13.27
2022-11-12T11:27:02.079Z,12.50
2022-11-12T11:29:41.964Z,11.90
2022-11-12T11:32:25.568Z,12.30
2022-11-12T11:35:01.175Z,12.77
2022-11-12T11:37:30.128Z,13.40
2022-11-12T11:40:06.642Z,13.17
2022-11-12T11:43:10.139Z,13.30
2022-11-12T11:45:55.236Z,12.83
2022-11-12T11:48:31.262Z,12.03
2022-11-12T11:51:02.681Z,12.30
2022-11-12T11:53:39.257Z,11.33
2022-11-12T11:56:14.892Z,12.53
2022-11-12T11:59:16.707Z,13.27
2022-11-12T12:02:00.750Z,15.10
2022-11-12T12:04:42.536Z,12.33
2022-11-12T12:07:20.889Z,12.17
2022-11-12T12:09:53.335Z,11.50
2022-11-12T12:12:35.314Z,11.57
2022-11-12T12:15:25.198Z,12.70
2022-11-12T12:18:03.986Z,11.80
2022-11-12T12:20:38.054Z,12.87
2022-11-12T12:23:12.663Z,13.07
2022-11-12T12:25:42.109Z,12.53
2022-11-12T12:28:16.635Z,12.23
2022-11-12T12:30:49.365Z,12.37
2022-11-12T12:33:27.928Z,12.53
2022-11-12T12:35:59.657Z,11.40
2022-11-12T12:38:32.669Z,11.87
2022-11-12T12:41:05.502Z,11.50
2022-11-12T12:43:36.374Z,10.93
2022-11-12T12:46:05.828Z,11.60
2022-11-12T12:48:35.090Z,10.87
2022-11-12T12:51:02.352Z,10.73
2022-11-12T12:53:34.331Z,11.07
2022-11-12T12:56:03.022Z,11.07
2022-11-12T12:58:31.706Z,11.37
2022-11-12T13:01:04.934Z,11.77
2022-11-12T13:04:03.310Z,11.43
2022-11-12T13:06:34.312Z,10.43
2022-11-12T13:09:04.359Z,12.57
2022-11-12T13:12:07.051Z,11.77
2022-11-12T13:15:13.186Z,12.13
2022-11-12T13:17:49.813Z,11.67
2022-11-12T13:20:32.497Z,11.40
2022-11-12T13:22:59.316Z,11.07
2022-11-12T13:25:28.569Z,12.30
2022-11-12T13:28:06.667Z,12.07
2022-11-12T13:30:56.071Z,13.07
2022-11-12T13:33:30.322Z,12.60
2022-11-12T13:36:24.285Z,12.20
2022-11-12T13:38:51.717Z,12.40
2022-11-12T13:41:42.212Z,12.53
2022-11-12T13:44:15.574Z,12.33
2022-11-12T13:46:44.767Z,12.47
2022-11-12T13:49:15.229Z,13.87
2022-11-12T13:51:45.111Z,12.20
2022-11-12T13:54:33.422Z,12.70
2022-11-12T13:57:31.037Z,13.13
2022-11-12T14:00:25.626Z,12.60
2022-11-12T14:02:55.302Z,12.77
2022-11-12T14:05:25.784Z,13.50
2022-11-12T14:08:07.776Z,13.57
2022-11-12T14:10:46.091Z,12.80
2022-11-12T14:13:35.743Z,14.13
2022-11-12T14:16:16.843Z,14.67
2022-11-12T14:19:10.421Z,14.30
2022-11-12T14:21:38.801Z,13.13
2022-11-12T14:24:09.623Z,14.17
2022-11-12T14:26:38.679Z,13.17
2022-11-12T14:29:06.245Z,15.23
2022-11-12T14:31:33.461Z,15.20
2022-11-12T14:34:21.312Z,14.13
2022-11-12T14:36:49.599Z,14.67
2022-11-12T14:39:16.600Z,15.20
2022-11-12T14:41:46.042Z,14.30
2022-11-12T14:44:19.109Z,14.57
2022-11-12T14:46:48.677Z,15.73
2022-11-12T14:49:20.933Z,15.73
2022-11-12T14:51:53.232Z,15.37
2022-11-12T14:54:27.136Z,14.00
2022-11-12T14:56:54.075Z,14.60
2022-11-12T14:59:21.019Z,16.37
2022-11-12T15:04:58.554Z,15.30
2022-11-12T15:07:29.236Z,16.87
2022-11-12T15:09:56.196Z,16.40
2022-11-12T15:12:25.577Z,17.40
2022-11-12T15:14:52.908Z,18.17
2022-11-12T15:17:30.997Z,18.00
2022-11-12T15:20:02.555Z,17.53
2022-11-12T15:22:32.364Z,18.03
2022-11-12T15:25:10.847Z,18.80
2022-11-12T15:27:39.597Z,19.67
2022-11-12T15:30:26.120Z,21.47
2022-11-12T15:33:08.195Z,19.50
2022-11-12T15:35:37.753Z,20.67
2022-11-12T15:38:11.755Z,21.10
2022-11-12T15:40:45.796Z,20.30
2022-11-12T15:43:18.077Z,20.43
2022-11-12T15:45:48.814Z,19.53
2022-11-12T15:48:18.977Z,19.80
2022-11-12T15:50:46.839Z,19.97
2022-11-12T15:53:16.127Z,18.63
2022-11-12T15:55:44.252Z,19.20
2022-11-12T15:58:16.316Z,16.97
2022-11-12T16:00:43.318Z,17.20
2022-11-12T16:03:14.872Z,15.53
2022-11-12T16:05:41.925Z,14.80
2022-11-12T16:08:09.108Z,15.63
2022-11-12T16:10:38.842Z,15.77
2022-11-12T16:13:11.915Z,16.30
2022-11-12T16:15:38.708Z,15.30
2022-11-12T16:18:05.601Z,16.77
2022-11-12T16:20:34.145Z,15.40
2022-11-12T16:23:01.459Z,23.43
2022-11-12T16:25:30.266Z,15.47
2022-11-12T16:28:00.889Z,13.73
2022-11-12T16:30:30.350Z,14.13
2022-11-12T16:32:57.788Z,12.90
2022-11-12T16:35:24.851Z,15.00
2022-11-12T16:37:53.451Z,12.83
2022-11-12T16:40:23.436Z,15.20
2022-11-12T16:42:50.472Z,12.77
2022-11-12T16:45:20.781Z,14.03
2022-11-12T16:47:49.258Z,11.77
2022-11-12T16:50:18.830Z,11.73
2022-11-12T16:52:45.694Z,11.20
2022-11-12T16:55:12.543Z,13.77
2022-11-12T16:57:40.359Z,12.83
2022-11-12T17:00:10.779Z,12.00
2022-11-12T17:02:44.349Z,10.63
2022-11-12T17:05:15.821Z,15.07
2022-11-12T17:07:42.737Z,10.80
2022-11-12T17:10:10.203Z,10.97
2022-11-12T17:12:37.007Z,10.97
2022-11-12T17:15:04.638Z,10.70
2022-11-12T17:17:31.494Z,10.30
2022-11-12T17:19:59.836Z,11.17
2022-11-12T17:22:26.883Z,11.37
2022-11-12T17:24:53.715Z,11.60
2022-11-12T17:27:20.497Z,11.03
2022-11-12T17:29:47.345Z,12.80
2022-11-12T17:32:14.140Z,11.93
2022-11-12T17:34:41.067Z,10.97
2022-11-12T17:37:09.209Z,11.87
2022-11-12T17:39:36.107Z,10.90
2022-11-12T17:42:02.930Z,10.93
2022-11-12T17:44:29.800Z,11.43
2022-11-12T17:46:56.600Z,11.23
2022-11-12T17:49:23.403Z,12.07
2022-11-12T17:51:50.282Z,11.63
2022-11-12T17:54:18.456Z,11.03
2022-11-12T17:56:45.276Z,12.00
2022-11-12T17:59:12.077Z,15.03
2022-11-12T18:01:39.191Z,16.30
2022-11-12T18:04:06.011Z,13.03
2022-11-12T18:06:34.707Z,12.43
2022-11-12T18:09:04.473Z,11.30
2022-11-12T18:11:41.757Z,10.53
2022-11-12T18:14:09.513Z,11.17
2022-11-12T18:16:36.724Z,10.47
2022-11-12T18:19:04.120Z,10.70
2022-11-12T18:21:30.948Z,10.13
2022-11-12T18:23:57.768Z,11.43
2022-11-12T18:26:24.623Z,10.23
2022-11-12T18:28:53.505Z,10.27
2022-11-12T18:31:21.456Z,11.07
2022-11-12T18:33:49.097Z,10.93
2022-11-12T18:36:17.992Z,14.40
2022-11-12T18:38:46.791Z,11.27
2022-11-12T18:41:15.002Z,11.33
2022-11-12T18:43:41.887Z,11.87
2022-11-12T18:46:11.339Z,10.90
2022-11-12T18:48:38.459Z,11.33
2022-11-12T18:51:07.774Z,10.97
2022-11-12T18:53:35.606Z,10.87
2022-11-12T18:56:05.319Z,11.17
2022-11-12T18:58:35.340Z,10.53
2022-11-12T19:01:03.302Z,10.33
2022-11-12T19:03:31.520Z,10.43
2022-11-12T19:05:58.948Z,11.07
2022-11-12T19:08:26.469Z,10.40
2022-11-12T19:10:58.255Z,11.37
2022-11-12T19:13:25.860Z,10.57
2022-11-12T19:15:52.961Z,10.80
2022-11-12T19:18:20.041Z,11.63
2022-11-12T19:20:48.869Z,10.47
2022-11-12T19:23:15.783Z,10.00
2022-11-12T19:25:42.652Z,10.67
2022-11-12T19:28:09.457Z,10.43
2022-11-12T19:30:36.374Z,10.50
2022-11-12T19:33:03.331Z,13.27
2022-11-12T19:35:30.197Z,11.10
2022-11-12T19:37:58.397Z,10.30
2022-11-12T19:40:25.688Z,10.50
2022-11-12T19:42:52.596Z,10.93
2022-11-12T19:45:19.415Z,10.73
2022-11-12T19:47:47.419Z,10.73
2022-11-12T19:50:14.498Z,11.60
2022-11-12T19:52:41.334Z,11.53
2022-11-12T19:55:10.263Z,10.00
2022-11-12T19:57:37.103Z,9.07
2022-11-12T20:00:05.199Z,9.20
2022-11-12T20:02:32.135Z,9.47
2022-11-12T20:04:59.024Z,8.27
2022-11-12T20:07:26.144Z,8.97
2022-11-12T20:09:57.998Z,9.50
2022-11-12T20:12:30.085Z,8.10
2022-11-12T20:14:56.991Z,8.37
2022-11-12T20:17:23.841Z,8.67
2022-11-12T20:19:50.939Z,8.03
2022-11-12T20:22:18.323Z,8.17
2022-11-12T20:24:45.150Z,8.53
2022-11-12T20:27:11.941Z,8.53
2022-11-12T20:29:40.192Z,8.27
2022-11-12T20:32:07.090Z,7.90
2022-11-12T20:34:33.933Z,8.97
2022-11-12T20:37:00.736Z,8.87
2022-11-12T20:39:27.602Z,8.53
2022-11-12T20:41:54.404Z,8.33
2022-11-12T20:44:21.320Z,8.40
2022-11-12T20:46:49.620Z,7.40
2022-11-12T20:49:16.413Z,7.90
2022-11-12T20:51:43.330Z,8.30
2022-11-12T20:54:10.586Z,8.87
2022-11-12T20:56:37.493Z,10.30
2022-11-12T20:59:04.314Z,9.53
2022-11-12T21:01:31.301Z,9.30
2022-11-12T21:03:59.768Z,8.33
2022-11-12T21:06:28.485Z,8.20
2022-11-12T21:08:58.566Z,8.93
2022-11-12T21:11:25.495Z,9.50
2022-11-12T21:13:52.321Z,8.30
2022-11-12T21:16:19.304Z,8.20
2022-11-12T21:18:46.122Z,8.87
2022-11-12T21:21:16.535Z,8.63
2022-11-12T21:23:44.584Z,8.33
2022-11-12T21:26:13.473Z,7.83
2022-11-12T21:28:43.049Z,9.30
2022-11-12T21:31:12.666Z,7.97
2022-11-12T21:33:39.758Z,7.73
2022-11-12T21:36:11.792Z,8.20
2022-11-12T21:38:43.124Z,8.07
2022-11-12T21:41:11.575Z,7.47
2022-11-12T21:43:39.261Z,10.63
2022-11-12T21:46:07.506Z,7.80
2022-11-12T21:48:34.412Z,8.40
2022-11-12T21:51:03.455Z,10.03
2022-11-12T21:53:30.237Z,8.73
2022-11-12T21:56:03.047Z,8.37
2022-11-12T21:58:30.140Z,9.93
2022-11-12T22:01:06.407Z,8.20
2022-11-12T22:03:33.528Z,10.17
2022-11-12T22:06:00.456Z,7.60
2022-11-12T22:08:27.619Z,8.13
2022-11-12T22:11:02.578Z,8.37
2022-11-12T22:13:29.787Z,7.53
2022-11-12T22:15:57.297Z,8.10
2022-11-12T22:18:24.629Z,8.23
2022-11-12T22:20:58.261Z,8.07
2022-11-12T22:23:25.557Z,9.00
2022-11-12T22:25:55.856Z,8.50
2022-11-12T22:28:24.849Z,10.00
2022-11-12T22:30:52.241Z,7.63
2022-11-12T22:33:19.269Z,7.93
2022-11-12T22:35:46.081Z,8.77
2022-11-12T22:38:13.331Z,8.23
2022-11-12T22:40:40.210Z,8.33
2022-11-12T22:43:06.988Z,7.50
2022-11-12T22:45:36.251Z,8.30
2022-11-12T22:48:03.201Z,8.93
2022-11-12T22:50:30.089Z,7.80
2022-11-12T22:52:56.877Z,8.00
2022-11-12T22:55:23.911Z,8.20
2022-11-12T22:57:50.753Z,8.47
2022-11-12T23:00:27.665Z,7.87
2022-11-12T23:02:55.833Z,7.67
2022-11-12T23:05:22.789Z,7.90
2022-11-12T23:07:50.263Z,7.80
2022-11-12T23:10:17.224Z,8.23
2022-11-12T23:12:44.007Z,8.10
2022-11-12T23:15:11.312Z,7.97
2022-11-12T23:17:38.138Z,7.70
2022-11-12T23:20:07.593Z,8.20
2022-11-12T23:22:34.424Z,7.97
2022-11-12T23:25:01.268Z,8.10
2022-11-12T23:27:28.802Z,8.93
2022-11-12T23:29:55.602Z,8.57
2022-11-12T23:32:22.402Z,8.20
2022-11-12T23:34:49.195Z,8.13
2022-11-12T23:37:17.415Z,7.60
2022-11-12T23:39:44.224Z,8.47
2022-11-12T23:42:11.006Z,8.87
2022-11-12T23:44:37.882Z,8.57
2022-11-12T23:47:04.809Z,7.73
2022-11-12T23:49:31.659Z,7.73
2022-11-12T23:51:58.451Z,7.33
2022-11-12T23:54:26.592Z,6.80
2022-11-12T23:56:53.410Z,7.30
2022-11-12T23:59:20.176Z,7.53
